Time;durP1;ratioP1;P1;durP2;ratioP2;P2;SDS_P1;SDS_P2;PMS_P1;PMS_P2;Temp;Humidity;BMP_temperature;BMP_pressure;BME280_temperature;BME280_humidity;BME280_pressure;Samples;Min_cycle;Max_cycle;Signal;HPM_P1;HPM_P2
2022/10/25 00:01:36;;;;;;;0.75;0.55;;;12.90;99.90;;;;;;5149648;27;20038;-77
2022/10/25 00:04:02;;;;;;;0.10;0.10;;;12.90;99.90;;;;;;5119116;27;20047;-77
2022/10/25 00:06:27;;;;;;;1.45;0.68;;;13.00;99.90;;;;;;5140611;27;20046;-77
2022/10/25 00:08:53;;;;;;;0.10;0.10;;;12.90;99.90;;;;;;5133635;27;20050;-77
2022/10/25 00:11:24;;;;;;;0.10;0.10;;;13.00;99.90;;;;;;5134537;27;20046;-77
2022/10/25 00:13:52;;;;;;;0.10;0.10;;;13.00;99.90;;;;;;5148232;27;20038;-76
2022/10/25 00:16:24;;;;;;;0.10;0.10;;;13.00;99.90;;;;;;5119081;27;20122;-77
2022/10/25 00:18:49;;;;;;;0.77;0.77;;;13.00;99.90;;;;;;5142419;27;20550;-76
2022/10/25 00:21:15;;;;;;;0.15;0.15;;;13.00;99.90;;;;;;5141549;27;20133;-77
2022/10/25 00:23:40;;;;;;;0.10;0.10;;;13.00;99.90;;;;;;5151254;27;20071;-77
2022/10/25 00:26:08;;;;;;;3.00;0.45;;;13.10;99.90;;;;;;5152473;27;20106;-77
2022/10/25 00:28:34;;;;;;;0.10;0.10;;;13.10;99.90;;;;;;5147740;27;20046;-77
2022/10/25 00:31:02;;;;;;;0.90;0.80;;;13.10;99.90;;;;;;5121205;27;20061;-76
2022/10/25 00:33:32;;;;;;;0.20;0.20;;;13.10;99.90;;;;;;5144151;27;20050;-75
2022/10/25 00:36:19;;;;;;;0.10;0.10;;;13.10;99.90;;;;;;5133543;27;20050;-77
2022/10/25 00:38:46;;;;;;;4.32;1.92;;;13.10;99.90;;;;;;5139794;27;20125;-76
2022/10/25 00:41:13;;;;;;;1.05;1.05;;;13.10;99.90;;;;;;5150423;27;20038;-76
2022/10/25 00:43:42;;;;;;;1.98;0.47;;;13.10;99.90;;;;;;5143561;27;20057;-77
2022/10/25 00:46:17;;;;;;;1.83;1.55;;;13.20;99.90;;;;;;5148774;27;20046;-76
2022/10/25 00:48:54;;;;;;;1.02;0.75;;;13.20;99.90;;;;;;5143469;27;20505;-76
2022/10/25 00:51:23;;;;;;;0.40;0.40;;;13.20;99.90;;;;;;5138747;27;20046;-76
2022/10/25 00:53:49;;;;;;;0.30;0.30;;;13.20;99.90;;;;;;5131834;27;20084;-77
2022/10/25 00:56:25;;;;;;;0.43;0.43;;;13.20;99.90;;;;;;5122544;27;20046;-77
2022/10/25 00:58:55;;;;;;;0.32;0.32;;;13.20;99.90;;;;;;5140704;27;20043;-76
2022/10/25 01:01:22;;;;;;;0.20;0.20;;;13.10;99.90;;;;;;5142809;27;20039;-77
2022/10/25 01:03:51;;;;;;;0.10;0.10;;;13.20;99.90;;;;;;5122467;27;20125;-76
2022/10/25 01:06:22;;;;;;;0.35;0.35;;;13.10;99.90;;;;;;5139657;27;20038;-77
2022/10/25 01:08:50;;;;;;;0.65;0.65;;;13.20;99.90;;;;;;5147233;27;20371;-76
2022/10/25 01:11:16;;;;;;;0.52;0.52;;;13.20;99.90;;;;;;5145423;27;20039;-77
2022/10/25 01:13:42;;;;;;;0.00;0.00;;;13.20;99.90;;;;;;5152257;27;20046;-76
2022/10/25 01:16:24;;;;;;;0.08;0.08;;;13.20;99.90;;;;;;5137397;27;20078;-77
2022/10/25 01:19:00;;;;;;;0.22;0.22;;;13.20;99.90;;;;;;5143235;27;20096;-76
2022/10/25 01:21:45;;;;;;;1.73;0.68;;;13.20;99.90;;;;;;5142055;27;20489;-77
2022/10/25 01:24:26;;;;;;;0.10;0.10;;;13.20;99.90;;;;;;5138530;27;20057;-77
2022/10/25 01:27:19;;;;;;;1.48;0.43;;;13.20;99.90;;;;;;5144101;27;20042;-77
2022/10/25 01:30:08;;;;;;;0.25;0.25;;;13.20;99.90;;;;;;5144426;27;20369;-77
2022/10/25 01:32:42;;;;;;;0.93;0.80;;;13.30;99.90;;;;;;5141509;27;20151;-76
2022/10/25 01:35:23;;;;;;;0.35;0.30;;;13.30;99.90;;;;;;5124642;27;20179;-76
2022/10/25 01:38:05;;;;;;;0.25;0.25;;;13.30;99.90;;;;;;5141542;27;20537;-76
2022/10/25 01:41:03;;;;;;;0.10;0.10;;;13.40;99.90;;;;;;5147614;27;20039;-76
2022/10/25 01:43:37;;;;;;;0.20;0.20;;;13.30;99.90;;;;;;5149656;27;20541;-77
2022/10/25 01:46:03;;;;;;;1.77;1.67;;;13.30;99.90;;;;;;5118404;27;20047;-77
2022/10/25 01:48:38;;;;;;;0.10;0.10;;;13.30;99.90;;;;;;5129294;27;20039;-77
2022/10/25 01:51:14;;;;;;;4.55;2.35;;;13.30;99.90;;;;;;5143748;27;20058;-77
2022/10/25 01:53:50;;;;;;;0.10;0.10;;;13.30;99.90;;;;;;5145278;27;20585;-77
2022/10/25 01:56:44;;;;;;;0.95;0.95;;;13.30;99.90;;;;;;5147770;27;20046;-77
2022/10/25 01:59:24;;;;;;;0.15;0.15;;;13.30;99.90;;;;;;5125451;27;20398;-77
2022/10/25 02:02:09;;;;;;;0.00;0.00;;;13.40;99.90;;;;;;5146567;27;20042;-77
2022/10/25 02:05:15;;;;;;;0.50;0.50;;;13.40;99.90;;;;;;5140756;27;20083;-78
2022/10/25 02:07:47;;;;;;;0.13;0.13;;;13.40;99.90;;;;;;5133888;27;20401;-78
2022/10/25 02:10:28;;;;;;;0.10;0.10;;;13.40;99.90;;;;;;5148261;27;20043;-78
2022/10/25 02:13:18;;;;;;;0.43;0.43;;;13.40;99.90;;;;;;5137978;27;20046;-78
2022/10/25 02:16:04;;;;;;;2.08;1.75;;;13.40;99.90;;;;;;5146825;27;20393;-78
2022/10/25 02:18:34;;;;;;;0.20;0.20;;;13.40;99.90;;;;;;5144694;27;20047;-78
2022/10/25 02:21:01;;;;;;;0.88;0.82;;;13.40;99.90;;;;;;5140057;27;20039;-77
2022/10/25 02:23:28;;;;;;;0.30;0.30;;;13.40;99.90;;;;;;5144288;27;20048;-77
2022/10/25 02:25:56;;;;;;;0.10;0.10;;;13.40;99.90;;;;;;5134533;27;20035;-77
2022/10/25 02:28:25;;;;;;;0.20;0.20;;;13.40;99.90;;;;;;5122784;27;20050;-77
2022/10/25 02:30:52;;;;;;;0.30;0.30;;;13.40;99.90;;;;;;5142939;27;20127;-77
2022/10/25 02:33:17;;;;;;;0.80;0.63;;;13.40;99.90;;;;;;5148204;27;20039;-77
2022/10/25 02:35:43;;;;;;;0.05;0.05;;;13.40;99.90;;;;;;5141787;27;20054;-77
2022/10/25 02:38:09;;;;;;;0.50;0.50;;;13.40;99.90;;;;;;5135348;27;20051;-77
2022/10/25 02:40:35;;;;;;;1.58;0.88;;;13.40;99.90;;;;;;5142491;27;20039;-77
2022/10/25 02:43:01;;;;;;;0.65;0.65;;;13.40;99.90;;;;;;5146482;27;20078;-78
2022/10/25 02:45:26;;;;;;;0.57;0.57;;;13.30;99.90;;;;;;5139481;27;20844;-79
2022/10/25 02:47:52;;;;;;;0.75;0.75;;;13.30;99.90;;;;;;5129522;27;20057;-78
2022/10/25 02:50:17;;;;;;;0.10;0.10;;;13.30;99.90;;;;;;5151044;27;20074;-77
2022/10/25 02:52:43;;;;;;;0.10;0.10;;;13.30;99.90;;;;;;5136441;27;20069;-77
2022/10/25 02:55:09;;;;;;;0.57;0.57;;;13.20;99.90;;;;;;5148523;27;20081;-77
2022/10/25 02:57:36;;;;;;;0.10;0.10;;;13.20;99.90;;;;;;5147425;27;20031;-77
2022/10/25 03:00:04;;;;;;;0.10;0.10;;;13.20;99.90;;;;;;5149572;27;20031;-77
2022/10/25 03:02:30;;;;;;;17.45;0.98;;;13.20;99.90;;;;;;5153391;27;20050;-77
2022/10/25 03:04:55;;;;;;;0.68;0.68;;;13.20;99.90;;;;;;5143793;27;20046;-77
2022/10/25 03:07:21;;;;;;;0.30;0.30;;;13.20;99.90;;;;;;5137417;27;20039;-78
2022/10/25 03:09:46;;;;;;;0.10;0.10;;;13.10;99.90;;;;;;5138837;27;20123;-77
2022/10/25 03:12:12;;;;;;;0.45;0.45;;;13.10;99.90;;;;;;5144558;27;20095;-78
2022/10/25 03:14:38;;;;;;;4.15;1.58;;;13.10;99.90;;;;;;5128366;27;20098;-78
2022/10/25 03:17:05;;;;;;;0.00;0.00;;;13.20;99.90;;;;;;5138616;27;20035;-78
2022/10/25 03:19:30;;;;;;;0.52;0.52;;;13.20;99.90;;;;;;5134856;27;20058;-77
2022/10/25 03:21:56;;;;;;;0.00;0.00;;;13.10;99.90;;;;;;5144551;27;20043;-77
2022/10/25 03:24:21;;;;;;;0.68;0.68;;;13.10;99.90;;;;;;5144327;27;20070;-78
2022/10/25 03:26:47;;;;;;;0.10;0.10;;;13.10;99.90;;;;;;5132980;27;20088;-77
2022/10/25 03:29:13;;;;;;;0.10;0.10;;;13.10;99.90;;;;;;5144553;27;20049;-77
2022/10/25 03:31:38;;;;;;;0.08;0.08;;;13.10;99.90;;;;;;5137163;27;20625;-77
2022/10/25 03:34:04;;;;;;;0.00;0.00;;;13.00;99.90;;;;;;5146073;27;20087;-78
2022/10/25 03:36:30;;;;;;;0.08;0.08;;;13.00;99.90;;;;;;5144695;27;20121;-78
2022/10/25 03:38:55;;;;;;;0.22;0.22;;;13.00;99.90;;;;;;5140792;27;20043;-77
2022/10/25 03:41:21;;;;;;;0.00;0.00;;;13.00;99.90;;;;;;5126402;27;20051;-78
2022/10/25 03:43:47;;;;;;;0.00;0.00;;;13.00;99.90;;;;;;5145574;27;20065;-77
2022/10/25 03:46:12;;;;;;;0.10;0.10;;;13.00;99.90;;;;;;5119660;27;20042;-77
2022/10/25 03:48:38;;;;;;;0.22;0.22;;;12.90;99.90;;;;;;5147795;27;20050;-77
2022/10/25 03:51:04;;;;;;;0.10;0.10;;;12.90;99.90;;;;;;5133288;27;20482;-77
2022/10/25 03:53:29;;;;;;;0.10;0.10;;;12.90;99.90;;;;;;5131669;27;20043;-77
2022/10/25 03:55:55;;;;;;;0.10;0.10;;;12.90;99.90;;;;;;5147388;27;20078;-76
2022/10/25 03:58:20;;;;;;;0.00;0.00;;;12.90;99.90;;;;;;5146432;27;20492;-77
2022/10/25 04:00:46;;;;;;;0.10;0.10;;;12.90;99.90;;;;;;5129650;27;20418;-76
2022/10/25 04:03:11;;;;;;;10.52;1.05;;;12.80;99.90;;;;;;5146035;27;20065;-77
2022/10/25 04:05:37;;;;;;;0.10;0.10;;;12.80;99.90;;;;;;5137203;27;20062;-77
2022/10/25 04:08:03;;;;;;;0.10;0.10;;;12.80;99.90;;;;;;5126935;27;20047;-77
2022/10/25 04:10:28;;;;;;;0.10;0.10;;;12.80;99.90;;;;;;5145219;27;20481;-77
2022/10/25 04:12:54;;;;;;;0.00;0.00;;;12.80;99.90;;;;;;5145313;27;20035;-77
2022/10/25 04:15:20;;;;;;;0.10;0.10;;;12.80;99.90;;;;;;5126992;27;20092;-77
2022/10/25 04:17:48;;;;;;;0.35;0.15;;;12.80;99.90;;;;;;5138404;27;20031;-78
2022/10/25 04:20:14;;;;;;;0.20;0.20;;;12.70;99.90;;;;;;5147619;27;20042;-77
2022/10/25 04:22:39;;;;;;;0.10;0.10;;;12.80;99.90;;;;;;5123037;27;20474;-77
2022/10/25 04:25:06;;;;;;;0.08;0.08;;;12.70;99.90;;;;;;5147682;27;20051;-78
2022/10/25 04:27:31;;;;;;;0.63;0.28;;;12.70;99.90;;;;;;5142334;27;20039;-77
2022/10/25 04:29:57;;;;;;;0.00;0.00;;;12.70;99.90;;;;;;5144914;27;20083;-77
2022/10/25 04:32:22;;;;;;;0.20;0.20;;;12.70;99.90;;;;;;5147048;27;20047;-77
2022/10/25 04:34:48;;;;;;;0.00;0.00;;;12.60;99.90;;;;;;5148203;27;20435;-76
2022/10/25 04:37:14;;;;;;;0.13;0.13;;;12.60;99.90;;;;;;5146378;27;20474;-76
2022/10/25 04:39:39;;;;;;;0.20;0.20;;;12.60;99.90;;;;;;5135725;27;20466;-77
2022/10/25 04:42:05;;;;;;;0.00;0.00;;;12.60;99.90;;;;;;5145299;27;20092;-77
2022/10/25 04:44:31;;;;;;;0.10;0.10;;;12.60;99.90;;;;;;5134571;27;20091;-77
2022/10/25 04:46:56;;;;;;;0.08;0.08;;;12.60;99.90;;;;;;5147769;27;20074;-76
2022/10/25 04:49:22;;;;;;;0.10;0.10;;;12.60;99.90;;;;;;5143063;27;20042;-77
2022/10/25 04:51:47;;;;;;;0.17;0.17;;;12.60;99.90;;;;;;5145385;27;20562;-76
2022/10/25 04:54:13;;;;;;;0.17;0.17;;;12.60;99.90;;;;;;5141921;27;20443;-77
2022/10/25 04:56:38;;;;;;;0.10;0.10;;;12.60;99.90;;;;;;5135058;27;20544;-77
2022/10/25 04:59:04;;;;;;;0.17;0.17;;;12.60;99.90;;;;;;5142582;27;20035;-76
2022/10/25 05:01:30;;;;;;;0.10;0.10;;;12.60;99.90;;;;;;5140350;27;20493;-76
2022/10/25 05:03:55;;;;;;;0.10;0.10;;;12.70;99.90;;;;;;5144220;27;20415;-76
2022/10/25 05:06:27;;;;;;;0.10;0.10;;;12.70;99.90;;;;;;5139627;27;20456;-77
2022/10/25 05:08:52;;;;;;;0.10;0.10;;;12.70;99.90;;;;;;5142168;27;20537;-77
2022/10/25 05:11:20;;;;;;;0.00;0.00;;;12.70;99.90;;;;;;5138031;27;20142;-76
2022/10/25 05:13:47;;;;;;;0.40;0.40;;;12.70;99.90;;;;;;5138261;27;20049;-77
2022/10/25 05:16:22;;;;;;;0.10;0.10;;;12.70;99.90;;;;;;5120592;27;20138;-77
2022/10/25 05:18:50;;;;;;;0.17;0.17;;;12.70;99.90;;;;;;5140010;27;20045;-77
2022/10/25 05:21:16;;;;;;;0.00;0.00;;;12.70;99.90;;;;;;5149292;27;20043;-77
2022/10/25 05:23:42;;;;;;;0.35;0.35;;;12.70;99.90;;;;;;5138864;27;20477;-76
2022/10/25 05:26:14;;;;;;;0.03;0.03;;;12.70;99.90;;;;;;5146944;27;20034;-77
2022/10/25 05:28:41;;;;;;;0.10;0.10;;;12.70;99.90;;;;;;5145826;27;20051;-76
2022/10/25 05:31:10;;;;;;;0.00;0.00;;;12.70;99.90;;;;;;5139858;27;20047;-77
2022/10/25 05:33:36;;;;;;;0.10;0.10;;;12.70;99.90;;;;;;5142259;27;20061;-76
2022/10/25 05:36:02;;;;;;;0.73;0.65;;;12.70;99.90;;;;;;5146007;27;20043;-76
2022/10/25 05:38:29;;;;;;;0.05;0.05;;;12.60;99.90;;;;;;5135000;27;20380;-77
2022/10/25 05:40:56;;;;;;;0.00;0.00;;;12.60;99.90;;;;;;5151849;27;20512;-76
2022/10/25 05:43:22;;;;;;;0.00;0.00;;;12.60;99.90;;;;;;5137495;27;20058;-76
2022/10/25 05:45:48;;;;;;;0.10;0.10;;;12.60;99.90;;;;;;5117977;27;20047;-76
2022/10/25 05:48:14;;;;;;;4.30;1.65;;;12.60;99.90;;;;;;5144339;27;20095;-76
2022/10/25 05:50:40;;;;;;;0.10;0.10;;;12.60;99.90;;;;;;5135270;27;20475;-76
2022/10/25 05:53:05;;;;;;;0.95;0.95;;;12.60;99.90;;;;;;5133620;27;20041;-75
2022/10/25 05:55:32;;;;;;;0.63;0.47;;;12.60;99.90;;;;;;5132436;27;20077;-76
2022/10/25 05:57:58;;;;;;;0.10;0.10;;;12.60;99.90;;;;;;5145265;27;20130;-76
2022/10/25 06:00:24;;;;;;;0.10;0.10;;;12.60;99.90;;;;;;5145602;27;20046;-76
2022/10/25 06:02:50;;;;;;;0.10;0.10;;;12.50;99.90;;;;;;5140022;27;20538;-75
2022/10/25 06:05:15;;;;;;;0.10;0.10;;;12.50;99.90;;;;;;5120391;27;20139;-77
2022/10/25 06:07:41;;;;;;;0.20;0.20;;;12.50;99.90;;;;;;5141786;27;20050;-77
2022/10/25 06:10:07;;;;;;;0.00;0.00;;;12.50;99.90;;;;;;5130477;27;20047;-79
2022/10/25 06:12:32;;;;;;;0.08;0.08;;;12.50;99.90;;;;;;5136904;27;20409;-78
2022/10/25 06:14:58;;;;;;;0.10;0.10;;;12.50;99.90;;;;;;5143781;27;20039;-77
2022/10/25 06:17:23;;;;;;;0.10;0.10;;;12.40;99.90;;;;;;5135599;27;20034;-78
2022/10/25 06:19:49;;;;;;;0.10;0.10;;;12.40;99.90;;;;;;5131682;27;20091;-78
2022/10/25 06:22:15;;;;;;;0.20;0.20;;;12.40;99.90;;;;;;5144442;27;20037;-78
2022/10/25 06:24:40;;;;;;;3.60;1.23;;;12.40;99.90;;;;;;5132431;27;20051;-78
2022/10/25 06:27:06;;;;;;;0.10;0.10;;;12.40;99.90;;;;;;5130019;27;20043;-79
2022/10/25 06:29:32;;;;;;;0.03;0.03;;;12.40;99.90;;;;;;5144965;27;20035;-77
2022/10/25 06:31:58;;;;;;;0.20;0.20;;;12.40;99.90;;;;;;5139516;27;20049;-78
2022/10/25 06:34:23;;;;;;;0.10;0.10;;;12.40;99.90;;;;;;5127824;27;20038;-78
2022/10/25 06:36:49;;;;;;;0.30;0.30;;;12.40;99.90;;;;;;5148640;27;20046;-77
2022/10/25 06:39:14;;;;;;;0.10;0.10;;;12.40;99.90;;;;;;5138804;27;20084;-77
2022/10/25 06:41:40;;;;;;;0.00;0.00;;;12.40;99.90;;;;;;5145366;27;20401;-77
2022/10/25 06:44:06;;;;;;;0.10;0.10;;;12.40;99.90;;;;;;5145855;27;20115;-76
2022/10/25 06:46:34;;;;;;;0.08;0.08;;;12.40;99.90;;;;;;5143672;27;20058;-77
2022/10/25 06:49:04;;;;;;;0.10;0.10;;;12.40;99.90;;;;;;5138976;27;20062;-77
2022/10/25 06:51:31;;;;;;;0.08;0.08;;;12.40;99.90;;;;;;5140484;27;20055;-77
2022/10/25 06:53:58;;;;;;;0.05;0.05;;;12.40;99.90;;;;;;5142223;27;20036;-76
2022/10/25 06:56:25;;;;;;;0.00;0.00;;;12.30;99.90;;;;;;5139889;27;20040;-76
2022/10/25 06:58:50;;;;;;;0.15;0.15;;;12.40;99.90;;;;;;5135490;27;20046;-71
2022/10/25 07:01:18;;;;;;;0.10;0.10;;;12.40;99.90;;;;;;5122466;27;20038;-77
2022/10/25 07:03:44;;;;;;;0.10;0.10;;;12.40;99.90;;;;;;5139605;27;20051;-77
2022/10/25 07:06:16;;;;;;;0.10;0.10;;;12.40;99.90;;;;;;5139001;27;20039;-78
2022/10/25 07:08:44;;;;;;;0.10;0.10;;;12.50;99.90;;;;;;5143706;27;20031;-77
2022/10/25 07:11:15;;;;;;;0.10;0.10;;;12.50;99.90;;;;;;5142136;27;20170;-77
2022/10/25 07:13:41;;;;;;;0.10;0.10;;;12.40;99.90;;;;;;5119791;27;20047;-77
2022/10/25 07:16:08;;;;;;;0.10;0.10;;;12.50;99.90;;;;;;5130591;27;20122;-77
2022/10/25 07:18:35;;;;;;;5.18;1.65;;;12.40;99.90;;;;;;5142837;27;20041;-77
2022/10/25 07:21:07;;;;;;;0.10;0.10;;;12.40;99.90;;;;;;5153148;27;20039;-77
2022/10/25 07:23:33;;;;;;;0.10;0.10;;;12.50;99.90;;;;;;5152299;27;20031;-77
2022/10/25 07:25:59;;;;;;;0.10;0.10;;;12.50;99.90;;;;;;5154911;27;20389;-77
2022/10/25 07:28:24;;;;;;;0.20;0.20;;;12.50;99.90;;;;;;5153689;27;20043;-77
2022/10/25 07:30:50;;;;;;;0.98;0.57;;;12.50;99.90;;;;;;5155050;27;20046;-77
2022/10/25 07:33:18;;;;;;;0.85;0.85;;;12.50;99.90;;;;;;5134747;27;20047;-76
2022/10/25 07:35:45;;;;;;;0.00;0.00;;;12.60;99.90;;;;;;5116723;27;20052;-77
2022/10/25 07:38:11;;;;;;;0.60;0.60;;;12.60;99.90;;;;;;5133690;27;20043;-76
2022/10/25 07:40:37;;;;;;;0.05;0.05;;;12.60;99.90;;;;;;5142759;27;20042;-76
2022/10/25 07:43:02;;;;;;;0.08;0.08;;;12.70;99.90;;;;;;5134653;27;20058;-77
2022/10/25 07:45:28;;;;;;;0.10;0.10;;;12.70;99.90;;;;;;5152417;27;20110;-76
2022/10/25 07:47:53;;;;;;;0.40;0.40;;;12.80;99.90;;;;;;5137014;27;20043;-77
2022/10/25 07:50:19;;;;;;;0.00;0.00;;;12.80;99.90;;;;;;5125311;27;20051;-77
2022/10/25 07:52:45;;;;;;;0.00;0.00;;;12.80;99.90;;;;;;5140836;27;20470;-76
2022/10/25 07:55:11;;;;;;;0.10;0.10;;;12.90;99.90;;;;;;5122085;27;20043;-77
2022/10/25 07:57:37;;;;;;;0.05;0.05;;;12.90;99.90;;;;;;5147893;27;20087;-78
2022/10/25 08:00:04;;;;;;;4.68;1.35;;;13.00;99.90;;;;;;5152411;27;20042;-77
2022/10/25 08:02:30;;;;;;;0.20;0.20;;;13.10;99.90;;;;;;5147490;27;20460;-77
2022/10/25 08:04:57;;;;;;;0.00;0.00;;;13.10;99.90;;;;;;5146774;27;20154;-76
2022/10/25 08:07:22;;;;;;;0.10;0.10;;;13.20;99.90;;;;;;5115813;27;20138;-77
2022/10/25 08:09:48;;;;;;;0.08;0.08;;;13.20;99.90;;;;;;5138851;27;20043;-77
2022/10/25 08:12:13;;;;;;;0.10;0.10;;;13.30;99.90;;;;;;5136167;27;20482;-78
2022/10/25 08:14:39;;;;;;;0.13;0.13;;;13.30;99.90;;;;;;5151978;27;20039;-77
2022/10/25 08:17:04;;;;;;;2.75;1.13;;;13.40;99.90;;;;;;5148559;27;20046;-78
2022/10/25 08:19:30;;;;;;;0.90;0.90;;;13.40;99.90;;;;;;5152342;27;20052;-77
2022/10/25 08:21:56;;;;;;;0.10;0.10;;;13.40;99.90;;;;;;5131937;27;20039;-77
2022/10/25 08:24:21;;;;;;;0.00;0.00;;;13.40;99.90;;;;;;5151146;27;20058;-78
2022/10/25 08:26:47;;;;;;;0.25;0.25;;;13.50;99.90;;;;;;5152062;27;20042;-78
2022/10/25 08:29:12;;;;;;;0.43;0.43;;;13.60;99.90;;;;;;5130092;27;20057;-78
2022/10/25 08:31:38;;;;;;;0.00;0.00;;;13.60;99.90;;;;;;5123782;27;20122;-77
2022/10/25 08:34:03;;;;;;;0.03;0.03;;;13.70;99.90;;;;;;5152094;27;20049;-77
2022/10/25 08:36:29;;;;;;;0.10;0.10;;;13.70;99.90;;;;;;5150266;27;20073;-76
2022/10/25 08:38:54;;;;;;;0.30;0.30;;;13.70;99.90;;;;;;5140876;27;20103;-77
2022/10/25 08:42:00;;;;;;;0.10;0.10;;;13.70;99.90;;;;;;5144853;27;20042;-76
2022/10/25 08:44:36;;;;;;;31.05;1.25;;;13.70;99.90;;;;;;5084843;28;20048;-77
2022/10/25 08:47:30;;;;;;;0.00;0.00;;;13.80;99.90;;;;;;5087945;28;20048;-77
2022/10/25 08:50:05;;;;;;;;;;;13.80;99.90;;;;;;5122135;27;20552;-78
2022/10/25 08:52:41;;;;;;;1.92;1.58;;;13.90;99.90;;;;;;5151466;27;19918;-77
2022/10/25 08:55:16;;;;;;;1.48;1.38;;;13.90;99.90;;;;;;5130359;27;20049;-78
2022/10/25 08:57:45;;;;;;;0.00;0.00;;;13.90;99.90;;;;;;5151792;27;20047;-77
2022/10/25 09:00:16;;;;;;;0.00;0.00;;;14.00;99.90;;;;;;5138490;27;20039;-77
2022/10/25 09:02:53;;;;;;;0.05;0.05;;;14.00;99.90;;;;;;5129484;27;20055;-78
2022/10/25 09:05:27;;;;;;;0.00;0.00;;;14.10;99.90;;;;;;5151331;27;20053;-77
2022/10/25 09:08:07;;;;;;;0.40;0.40;;;14.10;99.90;;;;;;5147922;27;20054;-77
2022/10/25 09:10:55;;;;;;;0.25;0.25;;;14.20;99.90;;;;;;5114191;27;20099;-77
2022/10/25 09:13:39;;;;;;;0.35;0.35;;;14.30;99.90;;;;;;5130521;27;20505;-77
2022/10/25 09:16:30;;;;;;;0.10;0.10;;;14.40;99.90;;;;;;5145691;27;20430;-79
2022/10/25 09:18:56;;;;;;;1.08;0.98;;;14.40;99.90;;;;;;5138304;27;20049;-77
2022/10/25 09:21:39;;;;;;;0.00;0.00;;;14.50;99.90;;;;;;5137220;27;20034;-75
2022/10/25 09:24:18;;;;;;;1.55;0.93;;;14.50;99.90;;;;;;5113315;27;20379;-75
2022/10/25 09:27:07;;;;;;;0.50;0.50;;;14.60;99.90;;;;;;5127156;27;20478;-75
2022/10/25 09:29:39;;;;;;;0.52;0.50;;;14.60;99.90;;;;;;5132056;27;20046;-76
2022/10/25 09:32:14;;;;;;;0.10;0.10;;;15.00;99.90;;;;;;5130280;27;20061;-76
2022/10/25 09:34:40;;;;;;;0.20;0.20;;;15.80;99.90;;;;;;5136346;27;20035;-76
2022/10/25 09:37:15;;;;;;;5.82;1.85;;;16.30;99.90;;;;;;5121663;27;20099;-76
2022/10/25 09:39:45;;;;;;;0.40;0.40;;;16.60;99.90;;;;;;5137356;27;20043;-76
2022/10/25 09:42:39;;;;;;;0.38;0.38;;;16.80;99.90;;;;;;5142095;27;20039;-77
2022/10/25 09:45:25;;;;;;;0.08;0.08;;;17.00;99.90;;;;;;5089374;27;20122;-77
2022/10/25 09:48:04;;;;;;;0.00;0.00;;;17.00;99.90;;;;;;5125301;27;20471;-76
2022/10/25 09:50:39;;;;;;;0.20;0.20;;;17.00;99.90;;;;;;5149726;27;20118;-75
2022/10/25 09:53:11;;;;;;;0.10;0.10;;;16.90;99.90;;;;;;5152210;27;20081;-75
2022/10/25 09:56:03;;;;;;;8.10;1.77;;;16.70;99.90;;;;;;5139996;27;20038;-75
2022/10/25 09:58:33;;;;;;;0.13;0.13;;;16.50;99.90;;;;;;5131872;27;20055;-75
2022/10/25 10:01:21;;;;;;;3.92;2.00;;;16.30;99.90;;;;;;5146021;27;20065;-75
2022/10/25 10:03:46;;;;;;;0.10;0.10;;;16.00;99.90;;;;;;5150846;27;20054;-76
2022/10/25 10:06:20;;;;;;;0.10;0.10;;;15.90;99.90;;;;;;5137771;27;20543;-75
2022/10/25 10:08:53;;;;;;;;;;;15.90;99.90;;;;;;5141644;27;20070;-75
2022/10/25 10:11:19;;;;;;;1.70;0.83;;;15.90;99.90;;;;;;5141344;27;19923;-75
2022/10/25 10:13:55;;;;;;;0.30;0.30;;;15.90;99.90;;;;;;5140563;27;20053;-75
2022/10/25 10:16:26;;;;;;;0.10;0.10;;;15.80;99.90;;;;;;5138303;27;20046;-74
2022/10/25 10:19:19;;;;;;;0.85;0.85;;;15.80;99.90;;;;;;5139083;27;20058;-77
2022/10/25 10:21:49;;;;;;;0.10;0.10;;;15.80;99.90;;;;;;5140364;27;20039;-76
2022/10/25 10:24:26;;;;;;;0.75;0.63;;;15.80;99.90;;;;;;5135746;27;20043;-75
2022/10/25 10:26:56;;;;;;;0.47;0.30;;;15.70;99.90;;;;;;5136508;27;20047;-75
2022/10/25 10:29:23;;;;;;;0.05;0.05;;;15.70;99.90;;;;;;5141534;27;20113;-75
2022/10/25 10:31:54;;;;;;;0.05;0.05;;;15.80;99.90;;;;;;5151172;27;20046;-74
2022/10/25 10:34:42;;;;;;;0.03;0.03;;;15.80;99.90;;;;;;5146035;27;20062;-75
2022/10/25 10:37:13;;;;;;;0.10;0.10;;;15.80;99.90;;;;;;5135033;27;20039;-76
2022/10/25 10:40:02;;;;;;;0.08;0.08;;;15.80;99.90;;;;;;5151701;27;20086;-73
2022/10/25 10:42:36;;;;;;;0.10;0.10;;;15.70;99.90;;;;;;5131575;27;20042;-75
2022/10/25 10:45:07;;;;;;;0.20;0.20;;;15.60;99.90;;;;;;5133866;27;20142;-76
2022/10/25 10:47:42;;;;;;;0.03;0.03;;;15.50;99.90;;;;;;5121707;27;20103;-78
2022/10/25 10:50:22;;;;;;;0.20;0.20;;;15.40;99.90;;;;;;5127317;27;20050;-77
2022/10/25 10:52:55;;;;;;;0.30;0.30;;;15.40;99.90;;;;;;5115613;27;20134;-75
2022/10/25 10:55:30;;;;;;;4.50;2.47;;;15.30;99.90;;;;;;5142731;27;20046;-74
2022/10/25 10:58:10;;;;;;;3.42;0.93;;;15.30;99.90;;;;;;5155313;27;20038;-75
2022/10/25 11:00:36;;;;;;;1.00;0.60;;;15.20;99.90;;;;;;5121351;27;20043;-74
2022/10/25 11:03:02;;;;;;;0.47;0.47;;;15.20;99.90;;;;;;5146630;27;20095;-74
2022/10/25 11:05:32;;;;;;;0.10;0.10;;;15.20;99.90;;;;;;5154766;27;20043;-74
2022/10/25 11:08:07;;;;;;;0.08;0.08;;;15.30;99.90;;;;;;5134244;27;20057;-74
2022/10/25 11:10:37;;;;;;;4.72;1.50;;;15.40;99.90;;;;;;5134599;27;20097;-73
2022/10/25 11:13:18;;;;;;;0.00;0.00;;;15.50;99.90;;;;;;5155108;27;20039;-73
2022/10/25 11:16:03;;;;;;;1.10;1.00;;;15.50;99.90;;;;;;5137399;27;20440;-74
2022/10/25 11:18:40;;;;;;;0.45;0.45;;;15.60;99.90;;;;;;5142342;27;20053;-74
2022/10/25 11:21:34;;;;;;;0.10;0.10;;;15.60;99.90;;;;;;5115709;27;20047;-75
2022/10/25 11:24:24;;;;;;;0.10;0.10;;;15.70;99.90;;;;;;5134888;27;20054;-74
2022/10/25 11:27:01;;;;;;;0.00;0.00;;;15.70;99.90;;;;;;5123916;27;20077;-74
2022/10/25 11:29:45;;;;;;;0.10;0.10;;;15.70;99.90;;;;;;5134093;27;20054;-73
2022/10/25 11:32:32;;;;;;;5.18;1.65;;;15.80;99.90;;;;;;5138883;27;20393;-73
2022/10/25 11:35:18;;;;;;;0.00;0.00;;;16.20;99.90;;;;;;5135605;27;20115;-73
2022/10/25 11:38:16;;;;;;;0.05;0.05;;;16.40;99.90;;;;;;5133974;27;20447;-72
2022/10/25 11:41:12;;;;;;;0.08;0.08;;;16.50;99.90;;;;;;5090353;27;20061;-74
2022/10/25 11:44:21;;;;;;;0.00;0.00;;;16.50;99.90;;;;;;5107886;27;20516;-73
2022/10/25 11:47:02;;;;;;;0.00;0.00;;;16.40;99.90;;;;;;5123512;27;20054;-74
2022/10/25 11:49:52;;;;;;;0.00;0.00;;;16.30;99.90;;;;;;5134278;27;20035;-73
2022/10/25 11:52:47;;;;;;;0.10;0.10;;;16.30;99.90;;;;;;5136844;27;20050;-73
2022/10/25 11:55:54;;;;;;;0.10;0.10;;;16.20;99.90;;;;;;5137665;27;20050;-74
2022/10/25 11:58:28;;;;;;;0.00;0.00;;;16.10;99.90;;;;;;5118331;27;20051;-73
2022/10/25 12:01:12;;;;;;;0.93;0.43;;;16.10;99.90;;;;;;5132234;27;20122;-74
2022/10/25 12:04:02;;;;;;;0.00;0.00;;;16.00;99.90;;;;;;5140159;27;20058;-73
2022/10/25 12:06:42;;;;;;;0.10;0.10;;;16.00;99.90;;;;;;5133233;27;20059;-74
2022/10/25 12:09:28;;;;;;;0.10;0.10;;;15.90;99.90;;;;;;5141154;27;20053;-74
2022/10/25 12:12:09;;;;;;;0.10;0.10;;;15.90;99.90;;;;;;5132730;27;20502;-74
2022/10/25 12:14:42;;;;;;;0.10;0.10;;;15.80;99.90;;;;;;5133445;27;20046;-73
2022/10/25 12:17:19;;;;;;;0.00;0.00;;;15.90;99.90;;;;;;5133651;27;20051;-74
2022/10/25 12:19:48;;;;;;;0.00;0.00;;;16.50;99.90;;;;;;5134733;27;20130;-73
2022/10/25 12:22:23;;;;;;;0.10;0.10;;;16.60;99.90;;;;;;5144725;27;20077;-74
2022/10/25 12:24:58;;;;;;;8.00;1.45;;;16.60;99.90;;;;;;5150870;27;20034;-74
2022/10/25 12:27:26;;;;;;;0.00;0.00;;;17.00;99.90;;;;;;5153706;27;20050;-76
2022/10/25 12:30:16;;;;;;;0.00;0.00;;;17.10;99.90;;;;;;5153053;27;20049;-73
2022/10/25 12:32:53;;;;;;;0.15;0.15;;;17.50;99.90;;;;;;5139641;27;20050;-73
2022/10/25 12:35:27;;;;;;;0.22;0.22;;;17.70;99.90;;;;;;5132769;27;20047;-73
2022/10/25 12:37:56;;;;;;;1.67;0.40;;;18.20;99.90;;;;;;5124350;27;20514;-74
2022/10/25 12:40:24;;;;;;;0.10;0.10;;;18.50;99.90;;;;;;5139538;27;20031;-73
2022/10/25 12:43:03;;;;;;;1.40;1.33;;;18.90;99.90;;;;;;5143921;27;20057;-73
2022/10/25 12:45:58;;;;;;;0.22;0.22;;;18.80;99.90;;;;;;5134869;27;20042;-73
2022/10/25 12:48:49;;;;;;;0.45;0.45;;;18.40;99.90;;;;;;5143826;27;20053;-74
2022/10/25 12:51:36;;;;;;;0.10;0.10;;;17.80;99.90;;;;;;5132470;27;20525;-72
2022/10/25 12:54:32;;;;;;;0.00;0.00;;;18.30;99.90;;;;;;5153268;27;20098;-73
2022/10/25 12:57:06;;;;;;;1.48;1.38;;;19.00;99.90;;;;;;5142590;27;20121;-72
2022/10/25 12:59:52;;;;;;;0.00;0.00;;;19.40;99.90;;;;;;5138918;27;20043;-71
2022/10/25 13:02:50;;;;;;;0.10;0.10;;;19.60;99.90;;;;;;5126802;27;20046;-71
2022/10/25 13:05:52;;;;;;;0.05;0.05;;;19.60;99.90;;;;;;5136798;27;20042;-72
2022/10/25 13:08:21;;;;;;;0.10;0.10;;;19.60;99.90;;;;;;5133242;27;20088;-73
2022/10/25 13:11:00;;;;;;;3.50;0.55;;;19.00;99.90;;;;;;5131739;27;20095;-72
2022/10/25 13:13:30;;;;;;;0.10;0.10;;;18.90;99.90;;;;;;5134637;27;20043;-73